createdAt,value
2017-11-14T00:00:48.162Z,940.00
2017-11-14T00:01:48.157Z,939.98
2017-11-14T00:02:48.151Z,940.02
2017-11-14T00:03:48.145Z,940.03
2017-11-14T00:04:48.139Z,940.05
2017-11-14T00:05:48.136Z,940.08
2017-11-14T00:06:48.176Z,940.11
2017-11-14T00:07:48.121Z,940.09
2017-11-14T00:08:48.115Z,940.13
2017-11-14T00:09:48.112Z,940.16
2017-11-14T00:10:48.102Z,940.19
2017-11-14T00:11:48.097Z,940.19
2017-11-14T00:12:48.092Z,940.19
2017-11-14T00:13:48.086Z,940.17
2017-11-14T00:14:48.080Z,940.21
2017-11-14T00:15:48.073Z,940.20
2017-11-14T00:16:48.069Z,940.23
2017-11-14T00:17:48.062Z,940.26
2017-11-14T00:18:48.064Z,940.27
2017-11-14T00:19:48.052Z,940.29
2017-11-14T00:20:48.043Z,940.25
2017-11-14T00:21:48.037Z,940.27
2017-11-14T00:22:48.031Z,940.29
2017-11-14T00:23:48.026Z,940.32
2017-11-14T00:24:48.021Z,940.30
2017-11-14T00:25:48.013Z,940.35
2017-11-14T00:26:48.008Z,940.33
2017-11-14T00:27:48.002Z,940.37
2017-11-14T00:28:47.996Z,940.40
2017-11-14T00:29:47.990Z,940.35
2017-11-14T00:30:47.984Z,940.37
2017-11-14T00:31:47.978Z,940.38
2017-11-14T00:32:47.972Z,940.34
2017-11-14T00:33:47.967Z,940.36
2017-11-14T00:34:47.960Z,940.35
2017-11-14T00:35:47.956Z,940.35
2017-11-14T00:36:47.949Z,940.36
2017-11-14T00:37:47.943Z,940.35
2017-11-14T00:38:47.938Z,940.34
2017-11-14T00:39:47.931Z,940.38
2017-11-14T00:40:47.924Z,940.41
2017-11-14T00:41:47.919Z,940.38
2017-11-14T00:42:47.912Z,940.42
2017-11-14T00:43:47.906Z,940.44
2017-11-14T00:44:47.900Z,940.47
2017-11-14T00:45:47.895Z,940.48
2017-11-14T00:46:47.895Z,940.51
2017-11-14T00:47:47.881Z,940.49
2017-11-14T00:48:47.877Z,940.50
2017-11-14T00:49:47.870Z,940.51
2017-11-14T00:50:47.865Z,940.51
2017-11-14T00:51:47.859Z,940.51
2017-11-14T00:52:47.853Z,940.50
2017-11-14T00:53:47.848Z,940.50
2017-11-14T00:54:47.840Z,940.52
2017-11-14T00:55:47.834Z,940.50
2017-11-14T00:56:47.828Z,940.51
2017-11-14T00:57:47.824Z,940.53
2017-11-14T00:58:47.816Z,940.50
2017-11-14T00:59:47.811Z,940.49
2017-11-14T01:00:47.854Z,940.54
2017-11-14T01:01:47.799Z,940.53
2017-11-14T01:02:47.792Z,940.54
2017-11-14T01:03:47.790Z,940.59
2017-11-14T01:04:47.780Z,940.59
2017-11-14T01:05:47.774Z,940.59
2017-11-14T01:06:47.769Z,940.61
2017-11-14T01:07:47.763Z,940.58
2017-11-14T01:08:47.757Z,940.62
2017-11-14T01:09:47.751Z,940.59
2017-11-14T01:10:47.745Z,940.57
2017-11-14T01:11:47.740Z,940.61
2017-11-14T01:12:47.733Z,940.59
2017-11-14T01:13:47.728Z,940.61
2017-11-14T01:14:47.720Z,940.62
2017-11-14T01:15:47.714Z,940.62
2017-11-14T01:16:47.707Z,940.59
2017-11-14T01:17:47.702Z,940.63
2017-11-14T01:18:47.695Z,940.63
2017-11-14T01:19:47.689Z,940.63
2017-11-14T01:20:47.683Z,940.68
2017-11-14T01:21:47.678Z,940.67
2017-11-14T01:22:47.671Z,940.62
2017-11-14T01:23:47.666Z,940.63
2017-11-14T01:24:47.660Z,940.60
2017-11-14T01:25:47.654Z,940.62
2017-11-14T01:26:47.664Z,940.65
2017-11-14T01:27:47.641Z,940.59
2017-11-14T01:28:47.635Z,940.64
2017-11-14T01:29:47.631Z,940.61
2017-11-14T01:30:47.624Z,940.65
2017-11-14T01:31:47.623Z,940.65
2017-11-14T01:32:47.610Z,940.60
2017-11-14T01:33:47.612Z,940.63
2017-11-14T01:34:47.598Z,940.64
2017-11-14T01:35:47.593Z,940.60
2017-11-14T01:36:47.586Z,940.62
2017-11-14T01:37:47.581Z,940.64
2017-11-14T01:38:47.575Z,940.62
2017-11-14T01:39:47.568Z,940.67
2017-11-14T01:40:47.576Z,940.66
2017-11-14T01:41:47.556Z,940.69
2017-11-14T01:42:47.550Z,940.69
2017-11-14T01:43:47.544Z,940.72
2017-11-14T01:44:47.538Z,940.72
2017-11-14T01:45:47.535Z,940.66
2017-11-14T01:46:47.525Z,940.68
2017-11-14T01:47:47.521Z,940.69
2017-11-14T01:48:47.514Z,940.68
2017-11-14T01:49:47.509Z,940.71
2017-11-14T01:50:47.501Z,940.75
2017-11-14T01:51:47.499Z,940.75
2017-11-14T01:52:47.490Z,940.71
2017-11-14T01:53:47.485Z,940.74
2017-11-14T01:54:47.478Z,940.74
2017-11-14T01:55:47.472Z,940.69
2017-11-14T01:56:47.465Z,940.71
2017-11-14T01:57:47.465Z,940.72
2017-11-14T01:58:47.454Z,940.71
2017-11-14T01:59:47.449Z,940.73
2017-11-14T02:00:47.442Z,940.74
2017-11-14T02:01:47.436Z,940.74
2017-11-14T02:02:47.428Z,940.73
2017-11-14T02:03:47.423Z,940.72
2017-11-14T02:04:47.417Z,940.71
2017-11-14T02:05:47.412Z,940.70
2017-11-14T02:06:47.406Z,940.68
2017-11-14T02:07:47.399Z,940.65
2017-11-14T02:08:47.393Z,940.67
2017-11-14T02:09:47.386Z,940.67
2017-11-14T02:10:47.380Z,940.63
2017-11-14T02:11:47.373Z,940.63
2017-11-14T02:12:47.369Z,940.69
2017-11-14T02:13:47.387Z,940.71
2017-11-14T02:14:47.356Z,940.70
2017-11-14T02:15:47.351Z,940.70
2017-11-14T02:16:47.346Z,940.73
2017-11-14T02:17:47.340Z,940.74
2017-11-14T02:18:47.333Z,940.76
2017-11-14T02:19:47.327Z,940.78
2017-11-14T02:20:47.322Z,940.81
2017-11-14T02:21:47.316Z,940.82
2017-11-14T02:22:47.308Z,940.88
2017-11-14T02:23:47.306Z,940.84
2017-11-14T02:24:47.302Z,940.87
2017-11-14T02:25:47.291Z,940.88
2017-11-14T02:26:47.285Z,940.86
2017-11-14T02:27:47.278Z,940.88
2017-11-14T02:28:47.273Z,940.87
2017-11-14T02:29:47.267Z,940.95
2017-11-14T02:30:47.260Z,940.93
2017-11-14T02:31:47.254Z,940.95
2017-11-14T02:32:47.247Z,941.02
2017-11-14T02:33:47.243Z,940.96
2017-11-14T02:34:47.237Z,940.95
2017-11-14T02:35:47.231Z,940.92
2017-11-14T02:36:47.225Z,940.93
2017-11-14T02:37:47.217Z,940.96
2017-11-14T02:38:47.211Z,941.00
2017-11-14T02:39:47.215Z,940.99
2017-11-14T02:40:47.200Z,940.97
2017-11-14T02:41:47.196Z,941.00
2017-11-14T02:42:47.188Z,940.97
2017-11-14T02:43:47.192Z,940.99
2017-11-14T02:44:47.177Z,941.01
2017-11-14T02:45:47.173Z,940.94
2017-11-14T02:46:47.162Z,940.96
2017-11-14T02:47:47.158Z,940.96
2017-11-14T02:48:47.152Z,941.00
2017-11-14T02:49:47.148Z,941.02
2017-11-14T02:50:47.138Z,941.01
2017-11-14T02:51:47.140Z,941.05
2017-11-14T02:52:47.127Z,941.10
2017-11-14T02:53:47.123Z,941.12
2017-11-14T02:54:47.115Z,941.15
2017-11-14T02:55:47.115Z,941.19
2017-11-14T02:56:47.103Z,941.17
2017-11-14T02:57:47.100Z,941.21
2017-11-14T02:58:47.090Z,941.23
2017-11-14T02:59:47.084Z,941.23
2017-11-14T03:00:47.079Z,941.27
2017-11-14T03:01:47.073Z,941.28
2017-11-14T03:02:47.066Z,941.24
2017-11-14T03:03:47.061Z,941.26
2017-11-14T03:04:47.053Z,941.28
2017-11-14T03:05:47.050Z,941.30
2017-11-14T03:06:47.041Z,941.27
2017-11-14T03:07:47.035Z,941.30
2017-11-14T03:08:47.033Z,941.30
2017-11-14T03:09:47.025Z,941.32
2017-11-14T03:10:47.016Z,941.32
2017-11-14T03:11:47.012Z,941.35
2017-11-14T03:12:47.010Z,941.33
2017-11-14T03:13:46.999Z,941.32
2017-11-14T03:14:46.993Z,941.35
2017-11-14T03:15:46.987Z,941.35
2017-11-14T03:16:46.980Z,941.36
2017-11-14T03:17:46.975Z,941.37
2017-11-14T03:18:46.969Z,941.36
2017-11-14T03:19:46.962Z,941.37
2017-11-14T03:20:46.955Z,941.34
2017-11-14T03:21:46.951Z,941.35
2017-11-14T03:22:46.944Z,941.33
2017-11-14T03:23:46.937Z,941.35
2017-11-14T03:24:46.932Z,941.38
2017-11-14T03:25:46.930Z,941.39
2017-11-14T03:26:46.918Z,941.41
2017-11-14T03:27:46.913Z,941.38
2017-11-14T03:28:46.906Z,941.43
2017-11-14T03:29:46.901Z,941.44
2017-11-14T03:30:46.898Z,941.47
2017-11-14T03:31:46.889Z,941.44
2017-11-14T03:32:46.886Z,941.43
2017-11-14T03:33:46.877Z,941.45
2017-11-14T03:34:46.871Z,941.43
2017-11-14T03:35:46.864Z,941.46
2017-11-14T03:36:46.858Z,941.48
2017-11-14T03:37:46.852Z,941.46
2017-11-14T03:38:46.845Z,941.51
2017-11-14T03:39:46.840Z,941.47
2017-11-14T03:40:46.835Z,941.47
2017-11-14T03:41:46.827Z,941.49
2017-11-14T03:42:46.820Z,941.49
2017-11-14T03:43:46.814Z,941.49
2017-11-14T03:44:46.809Z,941.50
2017-11-14T03:45:46.804Z,941.57
2017-11-14T03:46:46.795Z,941.51
2017-11-14T03:47:46.789Z,941.58
2017-11-14T03:48:46.788Z,941.51
2017-11-14T03:49:46.778Z,941.49
2017-11-14T03:50:46.772Z,941.47
2017-11-14T03:51:46.766Z,941.50
2017-11-14T03:52:46.760Z,941.54
2017-11-14T03:53:46.753Z,941.51
2017-11-14T03:54:46.746Z,941.55
2017-11-14T03:55:46.742Z,941.51
2017-11-14T03:56:46.735Z,941.53
2017-11-14T03:57:46.729Z,941.53
2017-11-14T03:58:46.722Z,941.55
2017-11-14T03:59:46.714Z,941.56
2017-11-14T04:00:46.710Z,941.60
2017-11-14T04:01:46.704Z,941.61
2017-11-14T04:02:46.696Z,941.55
2017-11-14T04:03:46.698Z,941.58
2017-11-14T04:04:46.684Z,941.56
2017-11-14T04:05:46.680Z,941.59
2017-11-14T04:06:46.671Z,941.58
2017-11-14T04:07:46.667Z,941.60
2017-11-14T04:08:46.660Z,941.56
2017-11-14T04:09:46.653Z,941.56
2017-11-14T04:10:46.657Z,941.56
2017-11-14T04:11:46.641Z,941.59
2017-11-14T04:12:46.634Z,941.63
2017-11-14T04:13:46.628Z,941.63
2017-11-14T04:14:46.622Z,941.64
2017-11-14T04:15:46.666Z,941.62
2017-11-14T04:16:46.610Z,941.67
2017-11-14T04:17:46.604Z,941.62
2017-11-14T04:18:46.597Z,941.64
2017-11-14T04:19:46.591Z,941.61
2017-11-14T04:20:46.584Z,941.62
2017-11-14T04:21:46.579Z,941.61
2017-11-14T04:22:46.571Z,941.64
2017-11-14T04:23:46.566Z,941.63
2017-11-14T04:24:46.559Z,941.66
2017-11-14T04:25:46.557Z,941.64
2017-11-14T04:26:46.546Z,941.71
2017-11-14T04:27:46.545Z,941.71
2017-11-14T04:28:46.534Z,941.76
2017-11-14T04:29:46.528Z,941.72
2017-11-14T04:30:46.521Z,941.77
2017-11-14T04:31:46.516Z,941.75
2017-11-14T04:32:46.509Z,941.77
2017-11-14T04:33:46.502Z,941.80
2017-11-14T04:34:46.495Z,941.84
2017-11-14T04:35:46.490Z,941.85
2017-11-14T04:36:46.483Z,941.84
2017-11-14T04:37:46.477Z,941.83
2017-11-14T04:38:46.469Z,941.83
2017-11-14T04:39:46.464Z,941.86
2017-11-14T04:40:46.507Z,941.82
2017-11-14T04:41:46.452Z,941.89
2017-11-14T04:42:46.445Z,941.88
2017-11-14T04:43:46.438Z,941.91
2017-11-14T04:44:46.433Z,941.92
2017-11-14T04:45:46.426Z,941.92
2017-11-14T04:46:46.420Z,941.95
2017-11-14T04:47:46.412Z,941.94
2017-11-14T04:48:46.406Z,941.97
2017-11-14T04:49:46.400Z,941.95
2017-11-14T04:50:46.445Z,941.97
2017-11-14T04:51:46.387Z,941.94
2017-11-14T04:52:46.386Z,941.97
2017-11-14T04:53:46.374Z,941.99
2017-11-14T04:54:46.367Z,941.99
2017-11-14T04:55:46.361Z,941.98
2017-11-14T04:56:46.355Z,942.01
2017-11-14T04:57:46.349Z,942.01
2017-11-14T04:58:46.341Z,942.02
2017-11-14T04:59:46.334Z,942.03
2017-11-14T05:00:46.328Z,942.04
2017-11-14T05:01:46.322Z,942.07
2017-11-14T05:02:46.315Z,942.08
2017-11-14T05:03:46.310Z,942.12
2017-11-14T05:04:46.303Z,942.12
2017-11-14T05:05:46.309Z,942.15
2017-11-14T05:06:46.290Z,942.17
2017-11-14T05:07:46.282Z,942.20
2017-11-14T05:08:46.280Z,942.17
2017-11-14T05:09:46.271Z,942.16
2017-11-14T05:10:46.264Z,942.19
2017-11-14T05:11:46.257Z,942.19
2017-11-14T05:12:46.250Z,942.21
2017-11-14T05:13:46.244Z,942.20
2017-11-14T05:14:46.238Z,942.23
2017-11-14T05:15:46.231Z,942.27
2017-11-14T05:16:46.226Z,942.30
2017-11-14T05:17:46.219Z,942.35
2017-11-14T05:18:46.209Z,942.33
2017-11-14T05:19:46.203Z,942.37
2017-11-14T05:20:46.197Z,942.33
2017-11-14T05:21:46.190Z,942.32
2017-11-14T05:22:46.182Z,942.32
2017-11-14T05:23:46.176Z,942.32
2017-11-14T05:24:46.169Z,942.34
2017-11-14T05:25:46.163Z,942.37
2017-11-14T05:26:46.154Z,942.39
2017-11-14T05:27:46.149Z,942.40
2017-11-14T05:28:46.142Z,942.39
2017-11-14T05:29:46.136Z,942.42
2017-11-14T05:30:46.128Z,942.44
2017-11-14T05:31:46.122Z,942.46
2017-11-14T05:32:46.115Z,942.49
2017-11-14T05:33:46.108Z,942.49
2017-11-14T05:34:46.101Z,942.49
2017-11-14T05:35:46.094Z,942.50
2017-11-14T05:36:46.088Z,942.49
2017-11-14T05:37:46.081Z,942.53
2017-11-14T05:38:46.073Z,942.49
2017-11-14T05:39:46.072Z,942.51
2017-11-14T05:40:46.061Z,942.53
2017-11-14T05:41:46.054Z,942.58
2017-11-14T05:42:46.046Z,942.57
2017-11-14T05:43:46.040Z,942.58
2017-11-14T05:44:46.033Z,942.60
2017-11-14T05:45:46.027Z,942.62
2017-11-14T05:46:46.019Z,942.58
2017-11-14T05:47:46.014Z,942.64
2017-11-14T05:48:46.005Z,942.64
2017-11-14T05:49:45.998Z,942.66
2017-11-14T05:50:45.991Z,942.68
2017-11-14T05:51:46.336Z,942.72
2017-11-14T05:52:45.978Z,942.78
2017-11-14T05:53:45.976Z,942.75
2017-11-14T05:54:45.967Z,942.75
2017-11-14T05:55:45.960Z,942.73
2017-11-14T05:56:45.952Z,942.74
2017-11-14T05:57:45.946Z,942.79
2017-11-14T05:58:45.938Z,942.76
2017-11-14T05:59:45.932Z,942.83
2017-11-14T06:00:45.925Z,942.83
2017-11-14T06:01:45.917Z,942.80
2017-11-14T06:02:45.912Z,942.83
2017-11-14T06:03:45.904Z,942.77
2017-11-14T06:04:45.899Z,942.82
2017-11-14T06:05:45.944Z,942.83
2017-11-14T06:06:45.885Z,942.83
2017-11-14T06:07:45.879Z,942.83
2017-11-14T06:08:45.873Z,942.81
2017-11-14T06:09:45.865Z,942.84
2017-11-14T06:10:45.859Z,942.85
2017-11-14T06:11:45.853Z,942.85
2017-11-14T06:12:45.898Z,942.86
2017-11-14T06:13:45.839Z,942.82
2017-11-14T06:14:45.833Z,942.87
2017-11-14T06:15:45.825Z,942.88
2017-11-14T06:16:45.818Z,942.92
2017-11-14T06:17:45.816Z,942.94
2017-11-14T06:18:45.806Z,942.94
2017-11-14T06:19:45.797Z,942.91
2017-11-14T06:20:45.793Z,942.91
2017-11-14T06:21:45.785Z,942.91
2017-11-14T06:22:45.777Z,942.93
2017-11-14T06:23:45.772Z,942.94
2017-11-14T06:24:45.766Z,943.02
2017-11-14T06:25:45.758Z,942.98
2017-11-14T06:26:45.751Z,943.03
2017-11-14T06:27:45.745Z,943.06
2017-11-14T06:28:45.737Z,943.02
2017-11-14T06:29:45.731Z,943.00
2017-11-14T06:30:45.724Z,943.07
2017-11-14T06:31:45.718Z,943.10
2017-11-14T06:32:45.711Z,943.09
2017-11-14T06:33:45.704Z,943.12
2017-11-14T06:34:45.706Z,943.15
2017-11-14T06:35:45.689Z,943.12
2017-11-14T06:36:45.686Z,943.13
2017-11-14T06:37:45.676Z,943.17
2017-11-14T06:38:45.670Z,943.13
2017-11-14T06:39:45.663Z,943.15
2017-11-14T06:40:45.656Z,943.18
2017-11-14T06:41:45.672Z,943.15
2017-11-14T06:42:45.642Z,943.15
2017-11-14T06:43:45.634Z,943.17
2017-11-14T06:44:45.629Z,943.16
2017-11-14T06:45:45.621Z,943.13
2017-11-14T06:46:45.613Z,943.18
2017-11-14T06:47:45.607Z,943.18
2017-11-14T06:48:45.600Z,943.17
2017-11-14T06:49:45.592Z,943.21
2017-11-14T06:50:45.589Z,943.24
2017-11-14T06:51:45.578Z,943.23
2017-11-14T06:52:45.571Z,943.22
2017-11-14T06:53:45.566Z,943.21
2017-11-14T06:54:45.557Z,943.27
2017-11-14T06:55:45.550Z,943.22
2017-11-14T06:56:45.549Z,943.21
2017-11-14T06:57:45.537Z,943.21
2017-11-14T06:58:45.530Z,943.18
2017-11-14T06:59:45.529Z,943.16
2017-11-14T07:00:45.520Z,943.17
2017-11-14T07:01:45.512Z,943.18
2017-11-14T07:02:45.504Z,943.17
2017-11-14T07:03:45.497Z,943.15
2017-11-14T07:04:45.502Z,943.12
2017-11-14T07:05:45.484Z,943.17
2017-11-14T07:06:45.477Z,943.14
2017-11-14T07:07:45.470Z,943.18
2017-11-14T07:08:45.464Z,943.15
2017-11-14T07:09:45.458Z,943.13
2017-11-14T07:10:45.450Z,943.16
2017-11-14T07:11:45.443Z,943.19
2017-11-14T07:12:45.438Z,943.15
2017-11-14T07:13:45.432Z,943.20
2017-11-14T07:14:45.429Z,943.24
2017-11-14T07:15:45.420Z,943.22
2017-11-14T07:16:45.412Z,943.25
2017-11-14T07:17:45.408Z,943.23
2017-11-14T07:18:45.413Z,943.26
2017-11-14T07:19:45.395Z,943.27
2017-11-14T07:20:45.387Z,943.32
2017-11-14T07:21:45.381Z,943.33
2017-11-14T07:22:45.373Z,943.33
2017-11-14T07:23:45.369Z,943.35
2017-11-14T07:24:45.361Z,943.36
2017-11-14T07:25:45.357Z,943.36
2017-11-14T07:26:45.349Z,943.37
2017-11-14T07:27:45.343Z,943.42
2017-11-14T07:28:45.340Z,943.41
2017-11-14T07:29:45.333Z,943.43
2017-11-14T07:30:45.325Z,943.43
2017-11-14T07:31:45.319Z,943.46
2017-11-14T07:32:45.313Z,943.47
2017-11-14T07:33:45.308Z,943.51
2017-11-14T07:34:45.301Z,943.48
2017-11-14T07:35:45.295Z,943.53
2017-11-14T07:36:45.340Z,943.57
2017-11-14T07:37:45.283Z,943.57
2017-11-14T07:38:45.278Z,943.50
2017-11-14T07:39:45.273Z,943.53
2017-11-14T07:40:45.269Z,943.56
2017-11-14T07:41:45.262Z,943.52
2017-11-14T07:42:45.257Z,943.50
2017-11-14T07:43:45.273Z,943.51
2017-11-14T07:44:45.246Z,943.53
2017-11-14T07:45:45.243Z,943.58
2017-11-14T07:46:45.235Z,943.65
2017-11-14T07:47:45.230Z,943.71
2017-11-14T07:48:45.227Z,943.67
2017-11-14T07:49:45.222Z,943.76
2017-11-14T07:50:45.218Z,943.80
2017-11-14T07:51:45.213Z,943.83
2017-11-14T07:52:45.210Z,943.84
2017-11-14T07:53:45.209Z,943.88
2017-11-14T07:54:45.203Z,943.88
2017-11-14T07:55:45.202Z,943.88
2017-11-14T07:56:45.201Z,943.88
2017-11-14T07:57:45.197Z,943.90
2017-11-14T07:58:45.195Z,943.92
2017-11-14T07:59:45.193Z,943.94
2017-11-14T08:00:45.191Z,943.91
2017-11-14T08:01:45.191Z,943.91
2017-11-14T08:02:45.186Z,943.88
2017-11-14T08:03:45.186Z,943.84
2017-11-14T08:04:45.234Z,943.86
2017-11-14T08:05:45.182Z,943.82
2017-11-14T08:06:45.180Z,943.82
2017-11-14T08:07:45.176Z,943.84
2017-11-14T08:08:45.173Z,943.84
2017-11-14T08:09:45.172Z,943.90
2017-11-14T08:10:45.168Z,943.87
2017-11-14T08:11:45.165Z,943.87
2017-11-14T08:12:45.162Z,943.90
2017-11-14T08:13:45.160Z,943.92
2017-11-14T08:14:45.158Z,943.87
2017-11-14T08:15:45.156Z,943.93
2017-11-14T08:16:45.154Z,943.94
2017-11-14T08:17:45.152Z,943.94
2017-11-14T08:18:45.149Z,943.94
2017-11-14T08:19:45.153Z,943.96
2017-11-14T08:20:45.159Z,943.98
2017-11-14T08:21:45.164Z,943.98
2017-11-14T08:22:45.144Z,944.01
2017-11-14T08:23:45.193Z,944.00
2017-11-14T08:24:45.144Z,944.01
2017-11-14T08:25:45.143Z,944.00
2017-11-14T08:26:45.141Z,943.99
2017-11-14T08:27:45.141Z,944.04
2017-11-14T08:28:45.141Z,944.06
2017-11-14T08:29:45.139Z,944.04
2017-11-14T08:30:45.137Z,944.01
2017-11-14T08:31:45.136Z,943.98
2017-11-14T08:32:45.135Z,943.99
2017-11-14T08:33:45.138Z,943.99
2017-11-14T08:34:45.132Z,944.00
2017-11-14T08:35:45.130Z,943.97
2017-11-14T08:36:45.129Z,943.94
2017-11-14T08:37:45.126Z,943.90
2017-11-14T08:38:45.124Z,943.88
2017-11-14T08:39:45.177Z,943.94
2017-11-14T08:40:45.122Z,943.93
2017-11-14T08:41:45.117Z,943.98
2017-11-14T08:42:45.114Z,943.94
2017-11-14T08:43:45.112Z,943.94
2017-11-14T08:44:45.111Z,943.94
2017-11-14T08:45:45.108Z,943.98
2017-11-14T08:46:45.105Z,944.02
2017-11-14T08:47:45.101Z,943.94
2017-11-14T08:48:45.100Z,943.98
2017-11-14T08:49:45.097Z,944.04
2017-11-14T08:50:45.093Z,944.06
2017-11-14T08:51:45.090Z,944.05
2017-11-14T08:52:45.088Z,944.07
2017-11-14T08:53:45.086Z,944.07
2017-11-14T08:54:45.108Z,944.07
2017-11-14T08:55:45.080Z,944.12
2017-11-14T08:56:45.078Z,944.12
2017-11-14T08:57:45.076Z,944.12
2017-11-14T08:58:45.072Z,944.10
2017-11-14T08:59:45.069Z,944.10
2017-11-14T09:00:45.069Z,944.13
2017-11-14T09:01:45.064Z,944.14
2017-11-14T09:02:45.060Z,944.15
2017-11-14T09:03:45.059Z,944.12
2017-11-14T09:04:45.057Z,944.10
2017-11-14T09:05:45.052Z,944.08
2017-11-14T09:06:45.049Z,944.09
2017-11-14T09:07:45.047Z,944.11
2017-11-14T09:08:45.048Z,944.11
2017-11-14T09:09:45.051Z,944.08
2017-11-14T09:10:45.037Z,944.09
2017-11-14T09:11:45.033Z,944.09
2017-11-14T09:12:45.032Z,944.11
2017-11-14T09:13:45.028Z,944.17
2017-11-14T09:14:45.024Z,944.14
2017-11-14T09:15:45.022Z,944.15
2017-11-14T09:16:45.020Z,944.15
2017-11-14T09:17:45.017Z,944.12
2017-11-14T09:18:45.018Z,944.14
2017-11-14T09:19:45.013Z,944.19
2017-11-14T09:20:45.009Z,944.17
2017-11-14T09:21:45.007Z,944.20
2017-11-14T09:22:45.004Z,944.27
2017-11-14T09:23:45.003Z,944.25
2017-11-14T09:24:45.004Z,944.26
2017-11-14T09:25:44.999Z,944.29
2017-11-14T09:26:44.999Z,944.28
2017-11-14T09:27:44.997Z,944.26
2017-11-14T09:28:44.992Z,944.26
2017-11-14T09:29:44.991Z,944.23
2017-11-14T09:30:44.988Z,944.24
2017-11-14T09:31:44.989Z,944.16
2017-11-14T09:32:44.985Z,944.17
2017-11-14T09:33:44.987Z,944.19
2017-11-14T09:34:44.981Z,944.19
2017-11-14T09:35:44.980Z,944.17
2017-11-14T09:36:44.977Z,944.14
2017-11-14T09:37:44.976Z,944.12
2017-11-14T09:38:44.972Z,944.16
2017-11-14T09:39:44.971Z,944.20
2017-11-14T09:40:44.969Z,944.21
2017-11-14T09:41:44.967Z,944.23
2017-11-14T09:42:44.966Z,944.19
2017-11-14T09:43:44.969Z,944.22
2017-11-14T09:44:44.962Z,944.18
2017-11-14T09:45:44.963Z,944.18
2017-11-14T09:46:44.960Z,944.20
2017-11-14T09:47:44.959Z,944.19
2017-11-14T09:48:44.959Z,944.19
2017-11-14T09:49:45.008Z,944.16
2017-11-14T09:50:44.957Z,944.17
2017-11-14T09:51:44.956Z,944.14
2017-11-14T09:52:44.958Z,944.14
2017-11-14T09:53:44.957Z,944.19
2017-11-14T09:54:44.955Z,944.20
2017-11-14T09:55:44.956Z,944.21
2017-11-14T09:56:44.955Z,944.24
2017-11-14T09:57:44.956Z,944.21
2017-11-14T09:58:44.956Z,944.18
2017-11-14T09:59:44.956Z,944.18
2017-11-14T10:00:44.957Z,944.14
2017-11-14T10:01:44.956Z,944.15
2017-11-14T10:02:44.957Z,944.15
2017-11-14T10:03:44.955Z,944.11
2017-11-14T10:04:45.106Z,944.12
2017-11-14T10:05:44.955Z,944.06
2017-11-14T10:06:44.954Z,944.07
2017-11-14T10:07:44.955Z,944.05
2017-11-14T10:08:44.953Z,944.03
2017-11-14T10:09:44.956Z,944.08
2017-11-14T10:10:44.951Z,944.09
2017-11-14T10:11:44.951Z,944.09
2017-11-14T10:12:44.951Z,944.07
2017-11-14T10:13:44.950Z,944.05
2017-11-14T10:14:44.948Z,944.10
2017-11-14T10:15:44.946Z,944.08
2017-11-14T10:16:44.945Z,944.06
2017-11-14T10:17:44.943Z,944.06
2017-11-14T10:18:44.942Z,944.07
2017-11-14T10:19:44.943Z,944.05
2017-11-14T10:20:44.938Z,944.07
2017-11-14T10:21:44.936Z,944.04
2017-11-14T10:22:44.934Z,943.99
2017-11-14T10:23:44.943Z,943.99
2017-11-14T10:24:44.932Z,944.00
2017-11-14T10:25:44.928Z,943.99
2017-11-14T10:26:44.926Z,944.00
2017-11-14T10:27:44.923Z,944.01
2017-11-14T10:28:44.923Z,944.02
2017-11-14T10:29:44.920Z,944.10
2017-11-14T10:30:44.921Z,944.06
2017-11-14T10:31:44.914Z,944.09
2017-11-14T10:32:44.913Z,944.07
2017-11-14T10:33:44.916Z,944.07
2017-11-14T10:34:44.910Z,944.07
2017-11-14T10:35:44.908Z,943.99
2017-11-14T10:36:44.908Z,944.04
2017-11-14T10:37:44.906Z,944.04
2017-11-14T10:38:44.904Z,944.03
2017-11-14T10:39:44.904Z,944.02
2017-11-14T10:40:44.901Z,944.04
2017-11-14T10:41:44.900Z,944.05
2017-11-14T10:42:44.896Z,944.01
2017-11-14T10:43:44.896Z,944.06
2017-11-14T10:44:44.896Z,944.03
2017-11-14T10:45:44.892Z,944.01
2017-11-14T10:46:44.890Z,943.99
2017-11-14T10:47:44.886Z,943.98
2017-11-14T10:48:44.886Z,943.97
2017-11-14T10:49:44.883Z,943.92
2017-11-14T10:50:44.887Z,943.91
2017-11-14T10:51:44.881Z,943.91
2017-11-14T10:52:44.875Z,943.86
2017-11-14T10:53:44.872Z,943.90
2017-11-14T10:54:44.896Z,943.86
2017-11-14T10:55:44.867Z,943.87
2017-11-14T10:56:44.874Z,943.93
2017-11-14T10:57:44.863Z,943.92
2017-11-14T10:58:44.858Z,943.92
2017-11-14T10:59:44.857Z,943.94
2017-11-14T11:00:44.853Z,943.91
2017-11-14T11:01:44.851Z,943.95
2017-11-14T11:02:44.848Z,943.95
2017-11-14T11:03:44.847Z,943.97
2017-11-14T11:04:44.843Z,943.98
2017-11-14T11:05:44.840Z,943.97
2017-11-14T11:06:44.838Z,943.97
2017-11-14T11:07:44.835Z,943.95
2017-11-14T11:08:44.833Z,943.97
2017-11-14T11:09:44.831Z,943.97
2017-11-14T11:10:44.832Z,943.96
2017-11-14T11:11:44.825Z,943.96
2017-11-14T11:12:44.822Z,943.94
2017-11-14T11:13:44.819Z,943.92
2017-11-14T11:14:44.819Z,943.92
2017-11-14T11:15:44.815Z,943.92
2017-11-14T11:16:44.813Z,943.99
2017-11-14T11:17:44.810Z,943.90
2017-11-14T11:18:44.808Z,943.87
2017-11-14T11:19:44.805Z,943.88
2017-11-14T11:20:44.810Z,943.86
2017-11-14T11:21:44.801Z,943.86
2017-11-14T11:22:44.798Z,943.84
2017-11-14T11:23:44.796Z,943.88
2017-11-14T11:24:44.795Z,943.83
2017-11-14T11:25:44.796Z,943.81
2017-11-14T11:26:44.788Z,943.82
2017-11-14T11:27:44.785Z,943.83
2017-11-14T11:28:44.783Z,943.83
2017-11-14T11:29:44.831Z,943.83
2017-11-14T11:30:44.778Z,943.84
2017-11-14T11:31:44.775Z,943.89
2017-11-14T11:32:44.771Z,943.87
2017-11-14T11:33:44.769Z,943.87
2017-11-14T11:34:44.767Z,943.84
2017-11-14T11:35:44.813Z,943.86
2017-11-14T11:36:44.760Z,943.80
2017-11-14T11:37:44.757Z,943.83
2017-11-14T11:38:44.751Z,943.79
2017-11-14T11:39:44.749Z,943.81
2017-11-14T11:40:44.747Z,943.80
2017-11-14T11:41:44.744Z,943.75
2017-11-14T11:42:44.741Z,943.75
2017-11-14T11:43:44.736Z,943.75
2017-11-14T11:44:44.733Z,943.77
2017-11-14T11:45:44.737Z,943.78
2017-11-14T11:46:44.727Z,943.75
2017-11-14T11:47:44.722Z,943.76
2017-11-14T11:48:44.719Z,943.72
2017-11-14T11:49:44.716Z,943.71
2017-11-14T11:50:44.712Z,943.73
2017-11-14T11:51:44.709Z,943.68
2017-11-14T11:52:44.708Z,943.75
2017-11-14T11:53:44.704Z,943.76
2017-11-14T11:54:44.699Z,943.73
2017-11-14T11:55:44.697Z,943.78
2017-11-14T11:56:44.692Z,943.81
2017-11-14T11:57:44.690Z,943.81
2017-11-14T11:58:44.688Z,943.87
2017-11-14T11:59:44.691Z,943.84
2017-11-14T12:00:44.681Z,943.87
2017-11-14T12:01:44.680Z,943.88
2017-11-14T12:02:44.677Z,943.84
2017-11-14T12:03:44.676Z,943.82
2017-11-14T12:04:44.688Z,943.82
2017-11-14T12:05:44.672Z,943.80
2017-11-14T12:06:44.673Z,943.82
2017-11-14T12:07:44.670Z,943.85
2017-11-14T12:08:44.670Z,943.91
2017-11-14T12:09:44.668Z,943.86
2017-11-14T12:10:44.666Z,943.88
2017-11-14T12:11:44.665Z,943.88
2017-11-14T12:12:44.666Z,943.83
2017-11-14T12:13:44.664Z,943.87
2017-11-14T12:14:44.662Z,943.81
2017-11-14T12:15:44.663Z,943.85
2017-11-14T12:16:44.662Z,943.80
2017-11-14T12:17:44.661Z,943.79
2017-11-14T12:18:44.660Z,943.80
2017-11-14T12:19:44.662Z,943.80
2017-11-14T12:20:44.660Z,943.81
2017-11-14T12:21:44.661Z,943.79
2017-11-14T12:22:44.658Z,943.80
2017-11-14T12:23:44.658Z,943.82
2017-11-14T12:24:44.715Z,943.78
2017-11-14T12:25:44.658Z,943.77
2017-11-14T12:26:44.659Z,943.81
2017-11-14T12:27:44.655Z,943.81
2017-11-14T12:28:44.656Z,943.78